Portada
METAR-TAF:

METAR-TAF

Aeropuertos :

Batna, Argelia

latitud: 35-33N, longitud: 006-11E, altitud: 1052 m

Observación

El informe se hizo hace 56 minutos, a las 12:00 UTC
Viento 5 kt del oeste-noroeste
Temperatura 26°C
Humedad 34%
Presión 1023 hPa
Visibilidad 10 km o más
Nubes dispersas a una altura de 2300 ft
Nubes dispersas a una altura de 20000 ft

METAR: DABT 131200Z 30005KT 9999 SCT023 SCT200 26/09 Q1023

Hora: 13:56 (12:56 UTC)

Pronóstico

El informe se hizo hace 1 hora y 56 minutos, a las 11:00 UTC
Pronóstico válido del 13 a las 12 UTC al 14 a las 12 UTC
Viento 8 kt del oeste-noroeste
Visibilidad 10 km o más
Escasas nubes a una altura de 3300 ft
Temporalmente
del 13 a las 13 UTC al 13 a las 21 UTC
Viento 15 kt del noreste
Escasas nubes a una altura de 2600 ft, Cumulonimbus.
Cielo nuboso a una altura de 3000 ft

TAF: DABT 131100Z 1312/1412 30008KT 9999 FEW033 TEMPO 1313/1321 04015KT FEW026CB BKN030

Observaciones y pronósticos meteorológicos de más de 4000 aeropuertos (mensajes METAR y TAF).

Los puntos amarillos y rojos representan las estaciones disponibles.

Ponga el ratón en el punto deseado para ver el nombre de la estación.

Haga clic para ver las observaciones y los pronósticos meteorológicos.

Para cambiar el mapa : haga clic en los botones verdes con una cruz de color negro para hacer un zoom, en el botón verde con un guión para alejar o en las flechas verdes para mapas adyacentes.


METAR-TAF: